Time;durP1;ratioP1;P1;durP2;ratioP2;P2;SDS_P1;SDS_P2;PMS_P1;PMS_P2;Temp;Humidity;BMP_temperature;BMP_pressure;BME280_temperature;BME280_humidity;BME280_pressure;Samples;Min_cycle;Max_cycle;Signal;HPM_P1;HPM_P2
2022/11/17 00:01:21;;;;;;;1.13;0.50;;;;;;;13.66;63.87;95249.84;4920328;28;20030;-74
2022/11/17 00:03:47;;;;;;;2.90;0.60;;;;;;;13.66;64.03;95249.84;4927709;28;20236;-73
2022/11/17 00:06:12;;;;;;;2.10;0.70;;;;;;;13.81;63.69;95249.34;4923613;28;20030;-74
2022/11/17 00:08:38;;;;;;;1.33;0.63;;;;;;;13.80;63.80;95245.16;4896050;28;20032;-75
2022/11/17 00:11:03;;;;;;;1.50;0.70;;;;;;;13.76;63.30;95235.63;4929907;28;20033;-74
2022/11/17 00:16:18;;;;;;;1.33;0.50;;;;;;;13.89;63.49;95221.59;4925964;28;20029;-75
2022/11/17 00:21:28;;;;;;;2.88;0.75;;;;;;;13.69;63.50;95215.19;4926958;28;20655;-75
2022/11/17 00:23:54;;;;;;;1.75;0.80;;;;;;;13.63;64.20;95211.22;4952446;28;20056;-74
2022/11/17 00:26:31;;;;;;;1.75;0.50;;;;;;;13.81;63.79;95202.25;4908130;28;20038;-74
2022/11/17 00:29:07;;;;;;;2.72;0.80;;;;;;;13.60;64.14;95198.78;4906518;28;20105;-74
2022/11/17 00:34:22;;;;;;;1.42;0.75;;;;;;;13.60;64.36;95196.16;4906267;28;21407;-74
2022/11/17 00:36:49;;;;;;;2.53;0.60;;;;;;;13.33;64.05;95182.38;4905308;28;20190;-74
2022/11/17 00:39:16;;;;;;;1.30;0.55;;;;;;;13.49;64.08;95185.28;4917076;28;20145;-75
2022/11/17 00:41:41;;;;;;;1.55;0.70;;;;;;;13.52;63.99;95184.66;4897896;28;20030;-74
2022/11/17 00:44:07;;;;;;;2.15;0.70;;;;;;;13.57;63.76;95179.25;4938135;28;20072;-73
2022/11/17 00:46:34;;;;;;;3.17;0.60;;;;;;;13.58;63.96;95174.78;4914732;28;20041;-74
2022/11/17 00:48:59;;;;;;;3.08;0.70;;;;;;;13.58;64.22;95175.53;4898119;28;20034;-75
2022/11/17 00:51:25;;;;;;;2.00;0.50;;;;;;;13.44;63.89;95169.75;4921702;28;20026;-74
2022/11/17 00:53:50;;;;;;;3.85;0.60;;;;;;;13.63;63.76;95166.78;4902680;28;20060;-74
2022/11/17 00:56:16;;;;;;;2.05;0.70;;;;;;;13.64;63.91;95160.44;4907665;28;20175;-74
2022/11/17 00:58:42;;;;;;;2.60;0.60;;;;;;;13.70;63.53;95145.38;4925526;28;20887;-74
2022/11/17 01:01:07;;;;;;;2.00;0.52;;;;;;;13.67;63.54;95131.06;4922006;28;20596;-74
2022/11/17 01:03:33;;;;;;;2.97;0.70;;;;;;;13.78;64.14;95134.09;4912521;28;20070;-74
2022/11/17 01:06:08;;;;;;;1.35;0.50;;;;;;;13.60;63.75;95136.78;4892610;28;20352;-75
2022/11/17 01:34:39;;;;;;;0.67;0.60;;;;;;;13.50;62.91;95074.38;4929614;28;20204;-75
2022/11/17 01:37:20;;;;;;;4.05;1.13;;;;;;;13.63;63.08;95062.94;4916471;28;20196;-74
2022/11/17 01:39:47;;;;;;;2.00;0.65;;;;;;;13.63;62.95;95060.31;4907913;28;20646;-75
2022/11/17 01:42:19;;;;;;;1.52;0.65;;;;;;;13.64;62.92;95054.00;4911574;28;20216;-75
2022/11/17 01:45:04;;;;;;;1.58;0.50;;;;;;;13.50;62.92;95045.63;4901175;28;20162;-75
2022/11/17 01:47:34;;;;;;;2.92;0.50;;;;;;;13.32;63.54;95036.34;4896885;28;20283;-75
2022/11/17 01:50:03;;;;;;;1.73;0.70;;;;;;;13.44;62.84;95031.97;4919616;28;20746;-75
2022/11/17 01:52:30;;;;;;;2.75;0.70;;;;;;;13.59;62.81;95022.03;4895051;28;20375;-74
2022/11/17 01:54:57;;;;;;;1.30;0.50;;;;;;;13.64;62.05;95021.84;4901718;28;20192;-74
2022/11/17 01:57:27;;;;;;;2.25;0.70;;;;;;;13.78;61.69;95017.16;4953484;28;20330;-75
2022/11/17 01:59:57;;;;;;;1.98;0.43;;;;;;;13.72;62.04;95007.97;4903566;28;20375;-76
2022/11/17 02:02:23;;;;;;;1.27;0.80;;;;;;;13.76;61.16;95003.66;4903897;28;20240;-75
2022/11/17 02:05:00;;;;;;;1.15;0.65;;;;;;;13.80;61.56;94994.06;4903426;28;20579;-75
2022/11/17 02:07:29;;;;;;;1.85;0.43;;;;;;;13.96;60.94;95002.09;4910647;28;20745;-74
2022/11/17 02:09:55;;;;;;;1.88;0.60;;;;;;;13.83;60.35;94990.06;4921568;28;20264;-75
2022/11/17 02:12:23;;;;;;;2.72;1.25;;;;;;;13.77;60.41;95002.53;4920090;28;20200;-75
2022/11/17 02:14:49;;;;;;;1.58;0.60;;;;;;;13.74;60.84;95008.41;4924296;28;20658;-74
2022/11/17 02:17:15;;;;;;;0.50;0.40;;;;;;;13.66;60.85;94998.78;4917610;28;20197;-74
2022/11/17 02:19:42;;;;;;;1.17;0.50;;;;;;;13.42;60.14;95000.16;4915823;28;20213;-74
2022/11/17 02:22:32;;;;;;;0.60;0.45;;;;;;;13.98;59.94;94988.72;4950717;28;20200;-75
2022/11/17 02:25:32;;;;;;;0.98;0.60;;;;;;;13.89;59.39;94999.25;4881771;28;20710;-74
2022/11/17 02:28:14;;;;;;;1.35;0.70;;;;;;;13.72;59.86;95001.97;4911391;28;20730;-74
2022/11/17 02:31:16;;;;;;;2.63;0.60;;;;;;;13.84;59.14;94999.44;4913592;28;20303;-74
2022/11/17 02:34:01;;;;;;;2.00;0.60;;;;;;;14.00;58.69;94997.78;4953428;28;20193;-74
2022/11/17 02:36:41;;;;;;;1.05;0.50;;;;;;;13.84;59.38;95004.66;4943620;28;20163;-74
2022/11/17 02:39:28;;;;;;;0.80;0.40;;;;;;;13.91;60.29;94999.69;4892261;28;20144;-74
2022/11/17 02:42:03;;;;;;;1.00;0.50;;;;;;;14.07;60.06;95006.97;4901219;28;20358;-74
2022/11/17 02:44:36;;;;;;;2.13;0.60;;;;;;;13.82;60.63;94996.38;4921269;28;20216;-74
2022/11/17 02:47:05;;;;;;;2.28;0.47;;;;;;;13.80;60.37;95004.53;4909425;28;20360;-74
2022/11/17 02:49:37;;;;;;;1.80;0.50;;;;;;;13.97;60.73;94987.94;4898802;28;20242;-74
2022/11/17 02:52:03;;;;;;;1.95;0.50;;;;;;;13.90;61.30;94986.91;4890773;28;20927;-75
2022/11/17 02:54:30;;;;;;;2.75;0.77;;;;;;;13.90;61.61;94987.69;4918514;28;20160;-74
2022/11/17 02:56:55;;;;;;;1.05;0.80;;;;;;;13.90;61.17;94997.38;4949267;28;20256;-74
2022/11/17 02:59:34;;;;;;;4.70;0.85;;;;;;;13.84;62.49;94988.97;4912270;28;20205;-74
2022/11/17 03:02:20;;;;;;;1.80;0.70;;;;;;;13.89;62.42;94978.31;4914815;28;20691;-75
2022/11/17 03:05:03;;;;;;;3.03;0.73;;;;;;;13.85;62.28;94974.81;4920377;28;20751;-74
2022/11/17 03:07:47;;;;;;;1.85;0.68;;;;;;;13.84;62.52;94976.66;4935825;28;20192;-75
2022/11/17 03:10:14;;;;;;;1.05;0.70;;;;;;;13.52;63.56;94974.72;4944775;28;20309;-74
2022/11/17 03:12:58;;;;;;;0.70;0.52;;;;;;;13.33;64.44;94964.66;4920253;28;20211;-74
2022/11/17 03:15:26;;;;;;;2.15;0.75;;;;;;;13.16;64.42;94965.50;4921238;28;20202;-74
2022/11/17 03:18:00;;;;;;;1.15;0.70;;;;;;;13.51;63.84;94965.34;4910301;28;20337;-73
2022/11/17 03:20:50;;;;;;;1.60;0.80;;;;;;;13.66;63.25;94962.94;4921845;28;20651;-74
2022/11/17 03:23:24;;;;;;;2.00;0.60;;;;;;;13.55;63.20;94958.41;4914076;28;20171;-74
2022/11/17 03:25:53;;;;;;;1.48;0.65;;;;;;;13.41;63.71;94967.22;4917768;28;20217;-74
2022/11/17 03:28:21;;;;;;;1.77;0.80;;;;;;;13.70;62.86;94964.91;4903312;28;20205;-74
2022/11/17 03:30:48;;;;;;;2.72;0.90;;;;;;;13.60;63.04;94969.44;4916516;28;20188;-74
2022/11/17 03:33:16;;;;;;;2.15;0.70;;;;;;;13.74;63.14;94965.81;4930531;28;20693;-75
2022/11/17 03:35:47;;;;;;;1.42;0.70;;;;;;;13.72;62.52;94965.38;4902234;28;20288;-74
2022/11/17 03:38:14;;;;;;;1.13;0.60;;;;;;;13.80;63.02;94962.69;4919422;28;20216;-74
2022/11/17 03:40:43;;;;;;;1.85;0.93;;;;;;;13.45;63.46;94962.13;4914312;28;20724;-75
2022/11/17 03:43:11;;;;;;;1.58;0.75;;;;;;;13.71;63.27;94955.97;4921155;28;20173;-73
2022/11/17 03:45:39;;;;;;;2.13;0.50;;;;;;;13.64;63.42;94967.72;4880630;28;20653;-74
2022/11/17 03:48:34;;;;;;;1.63;0.82;;;;;;;13.56;63.49;94963.31;4895799;28;20232;-74
2022/11/17 03:51:17;;;;;;;1.77;0.60;;;;;;;13.28;65.21;94963.75;4919366;28;20189;-74
2022/11/17 03:53:44;;;;;;;2.22;0.80;;;;;;;13.65;63.98;94969.25;4905668;28;20185;-74
2022/11/17 03:56:24;;;;;;;1.15;0.80;;;;;;;13.48;65.38;94964.88;4901311;28;20294;-75
2022/11/17 03:58:58;;;;;;;3.42;0.65;;;;;;;13.67;65.25;94956.63;4939478;28;20218;-74
2022/11/17 04:01:24;;;;;;;0.93;0.70;;;;;;;13.46;65.59;94974.13;4916707;28;20301;-74
2022/11/17 04:03:50;;;;;;;1.00;0.60;;;;;;;13.37;66.18;94966.34;4892975;28;20257;-74
2022/11/17 04:06:16;;;;;;;2.42;0.98;;;;;;;13.38;66.16;94967.84;4904354;28;20706;-75
2022/11/17 04:08:41;;;;;;;2.22;0.70;;;;;;;13.35;66.43;94965.13;4899245;28;20329;-74
2022/11/17 04:16:34;;;;;;;2.85;0.90;;;;;;;13.18;66.98;94943.22;4950384;28;20193;-75
2022/11/17 04:18:59;;;;;;;2.95;0.98;;;;;;;13.16;67.62;94953.22;4890120;28;20253;-74
2022/11/17 04:21:25;;;;;;;2.45;1.42;;;;;;;13.32;67.41;94939.63;4917081;28;20217;-75
2022/11/17 04:23:50;;;;;;;1.65;0.98;;;;;;;12.99;68.06;94940.22;4917630;28;20285;-74
2022/11/17 04:29:00;;;;;;;2.78;1.00;;;;;;;13.12;67.80;94944.47;4948009;28;20605;-74
2022/11/17 04:31:27;;;;;;;2.90;0.80;;;;;;;13.28;67.55;94936.84;4918057;28;20278;-75
2022/11/17 04:34:00;;;;;;;2.42;0.93;;;;;;;13.39;67.37;94935.44;4922493;28;20148;-74
2022/11/17 04:36:28;;;;;;;1.98;0.90;;;;;;;13.37;67.22;94934.97;4914651;28;20624;-75
2022/11/17 04:38:55;;;;;;;2.67;0.70;;;;;;;13.21;67.54;94926.13;4942658;28;20678;-74
2022/11/17 04:44:08;;;;;;;1.77;0.73;;;;;;;13.29;67.28;94938.38;4932867;28;20346;-75
2022/11/17 04:46:34;;;;;;;3.60;1.42;;;;;;;13.51;66.05;94929.50;4899845;28;20635;-74
2022/11/17 04:49:00;;;;;;;1.70;0.70;;;;;;;13.08;67.76;94920.81;4879439;28;20212;-74
2022/11/17 04:51:27;;;;;;;2.20;0.60;;;;;;;13.36;67.18;94932.69;4900493;28;20193;-74
2022/11/17 04:53:53;;;;;;;1.58;0.60;;;;;;;13.20;67.39;94930.59;4919976;28;20193;-75
2022/11/17 04:56:19;;;;;;;2.35;0.70;;;;;;;13.59;66.61;94926.06;4897534;28;20217;-75
2022/11/17 04:58:44;;;;;;;2.97;0.93;;;;;;;13.38;67.13;94914.81;4904666;28;20316;-74
2022/11/17 05:01:13;;;;;;;2.33;0.68;;;;;;;13.53;66.78;94929.94;4911379;28;20783;-73
2022/11/17 05:03:40;;;;;;;1.50;1.17;;;;;;;13.29;67.64;94922.69;4890030;28;20291;-74
2022/11/17 05:06:05;;;;;;;1.25;0.70;;;;;;;13.91;65.62;94921.19;4922300;28;20404;-75
2022/11/17 05:08:31;;;;;;;3.08;0.80;;;;;;;13.91;65.34;94926.44;4909867;28;20257;-74
2022/11/17 05:13:40;;;;;;;2.83;0.80;;;;;;;13.64;66.20;94904.19;4925353;28;20228;-74
2022/11/17 05:18:59;;;;;;;1.73;0.70;;;;;;;13.83;65.69;94899.28;4913572;28;20190;-74
2022/11/17 05:21:24;;;;;;;1.38;0.73;;;;;;;13.71;66.52;94916.75;4929373;28;20533;-74
2022/11/17 05:23:52;;;;;;;1.50;0.98;;;;;;;13.45;67.42;94913.25;4927462;28;20155;-75
2022/11/17 05:26:19;;;;;;;2.67;0.50;;;;;;;14.04;65.28;94917.56;4927257;28;20247;-74
2022/11/17 05:28:44;;;;;;;2.83;0.77;;;;;;;13.84;66.21;94920.97;4911551;28;20339;-75
2022/11/17 05:31:10;;;;;;;2.25;0.70;;;;;;;13.88;66.14;94923.69;4923957;28;20300;-74
2022/11/17 05:33:35;;;;;;;3.60;0.60;;;;;;;14.00;65.69;94935.00;4918811;28;20221;-75
2022/11/17 05:36:01;;;;;;;2.67;0.40;;;;;;;14.09;65.31;94923.69;4911486;28;20655;-74
2022/11/17 05:38:26;;;;;;;2.22;0.52;;;;;;;14.04;65.55;94922.78;4923912;28;20184;-74
2022/11/17 05:40:51;;;;;;;1.58;0.47;;;;;;;13.98;65.43;94926.69;4926155;28;20667;-75
2022/11/17 05:43:17;;;;;;;0.70;0.43;;;;;;;14.04;65.14;94930.63;4926898;28;20212;-74
2022/11/17 05:45:44;;;;;;;2.42;0.55;;;;;;;13.96;66.01;94931.47;4925766;28;20162;-75
2022/11/17 05:48:09;;;;;;;0.93;0.50;;;;;;;13.79;66.26;94934.97;4906363;28;20165;-75
2022/11/17 05:50:35;;;;;;;1.02;0.60;;;;;;;13.68;66.86;94926.78;4921595;28;20232;-75
2022/11/17 05:53:00;;;;;;;4.57;0.68;;;;;;;13.72;65.98;94931.38;4917865;28;20895;-74
2022/11/17 05:55:26;;;;;;;2.05;0.40;;;;;;;14.04;64.76;94924.66;4923248;28;20637;-74
2022/11/17 05:57:52;;;;;;;2.13;0.30;;;;;;;14.04;64.95;94925.41;4902452;28;20166;-74
2022/11/17 06:00:17;;;;;;;1.08;0.75;;;;;;;13.79;65.90;94924.53;4887739;28;20327;-74
2022/11/17 06:02:46;;;;;;;0.90;0.68;;;;;;;14.08;64.98;94933.38;4924252;28;20375;-74
2022/11/17 06:05:11;;;;;;;1.98;0.40;;;;;;;13.84;65.63;94928.81;4911932;28;20204;-74
2022/11/17 06:07:37;;;;;;;1.67;0.77;;;;;;;13.93;64.99;94939.97;4883486;28;20213;-75
2022/11/17 06:10:03;;;;;;;1.95;0.60;;;;;;;14.23;64.36;94932.03;4915419;28;20186;-74
2022/11/17 06:12:28;;;;;;;1.00;0.40;;;;;;;14.38;63.66;94935.88;4892710;28;20287;-75
2022/11/17 06:14:53;;;;;;;1.52;0.98;;;;;;;14.30;63.77;94937.47;4896581;28;20204;-74
2022/11/17 06:17:26;;;;;;;2.28;0.88;;;;;;;13.90;64.84;94914.47;4931930;28;20214;-75
2022/11/17 06:20:15;;;;;;;2.33;0.40;;;;;;;13.74;65.27;94927.34;4905466;28;20241;-74
2022/11/17 06:22:41;;;;;;;1.75;0.40;;;;;;;14.09;64.57;94936.78;4882940;28;20228;-75
2022/11/17 06:25:09;;;;;;;3.88;0.50;;;;;;;14.16;64.01;94937.00;4936049;28;20897;-75
2022/11/17 06:27:36;;;;;;;2.65;0.40;;;;;;;13.51;65.49;94936.59;4927682;28;20189;-74
2022/11/17 06:30:04;;;;;;;3.58;0.70;;;;;;;13.80;65.34;94933.91;4923638;28;20264;-74
2022/11/17 06:32:30;;;;;;;5.03;0.88;;;;;;;13.42;66.58;94928.81;4920842;28;20254;-74
2022/11/17 06:34:56;;;;;;;3.50;1.38;;;;;;;13.77;65.53;94933.78;4900093;28;20271;-74
2022/11/17 06:37:21;;;;;;;4.28;0.70;;;;;;;14.05;64.44;94928.78;4924267;28;20336;-75
2022/11/17 06:39:47;;;;;;;3.03;0.65;;;;;;;14.03;64.04;94941.41;4920186;28;20224;-74
2022/11/17 06:42:12;;;;;;;4.97;0.68;;;;;;;14.13;63.64;94942.88;4916285;28;20650;-75
2022/11/17 06:44:38;;;;;;;4.53;0.60;;;;;;;14.10;63.57;94936.44;4902528;28;20331;-75
2022/11/17 06:47:03;;;;;;;2.35;0.52;;;;;;;14.13;63.63;94955.97;4920444;28;20445;-75
2022/11/17 06:49:28;;;;;;;2.60;0.60;;;;;;;13.88;64.42;94948.03;4920773;28;20211;-74
2022/11/17 06:51:54;;;;;;;3.03;0.95;;;;;;;13.95;63.94;94942.25;4934172;28;20170;-75
2022/11/17 06:54:19;;;;;;;3.17;0.77;;;;;;;14.00;63.72;94942.84;4911186;28;20648;-75
2022/11/17 06:56:45;;;;;;;2.55;0.93;;;;;;;14.20;63.00;94949.13;4950600;28;20239;-74
2022/11/17 06:59:11;;;;;;;5.82;0.75;;;;;;;14.42;62.11;94950.59;4891886;28;20375;-75
2022/11/17 07:01:36;;;;;;;4.43;1.00;;;;;;;14.46;62.30;94948.09;4878447;28;20208;-75
2022/11/17 07:04:02;;;;;;;5.63;0.68;;;;;;;14.52;62.27;94964.41;4917264;28;20246;-75
2022/11/17 07:06:27;;;;;;;3.40;0.77;;;;;;;14.22;62.94;94956.66;4921778;28;20361;-74
2022/11/17 07:08:53;;;;;;;3.03;0.70;;;;;;;14.12;64.06;94962.28;4887712;28;20220;-75
2022/11/17 07:11:18;;;;;;;3.95;1.05;;;;;;;13.81;66.23;94972.06;4905571;28;20409;-75
2022/11/17 07:13:44;;;;;;;4.90;0.85;;;;;;;13.97;66.17;94959.19;4903817;28;20200;-75
2022/11/17 07:16:12;;;;;;;6.00;1.13;;;;;;;14.06;66.24;94969.56;4904095;28;20608;-75
2022/11/17 07:18:37;;;;;;;3.70;0.85;;;;;;;14.31;65.06;94982.75;4909429;28;20208;-75
2022/11/17 07:21:05;;;;;;;3.55;1.08;;;;;;;14.32;65.67;94981.66;4919852;28;20268;-75
2022/11/17 07:23:31;;;;;;;6.95;1.65;;;;;;;14.30;65.66;94973.38;4909281;28;20276;-75
2022/11/17 07:25:57;;;;;;;5.00;1.05;;;;;;;14.39;65.60;94966.97;4887599;28;20640;-75
2022/11/17 07:28:22;;;;;;;6.18;1.77;;;;;;;14.47;65.35;94978.44;4918054;28;20294;-75
2022/11/17 07:30:48;;;;;;;6.15;1.00;;;;;;;14.32;66.06;94992.91;4918145;28;20202;-74
2022/11/17 07:33:13;;;;;;;6.00;1.30;;;;;;;14.30;65.91;94974.13;4923198;28;20762;-75
2022/11/17 07:35:39;;;;;;;5.97;1.05;;;;;;;13.72;67.94;94973.22;4916340;28;20198;-76
2022/11/17 07:38:04;;;;;;;7.82;1.40;;;;;;;13.65;68.19;94971.84;4913697;28;20221;-75
2022/11/17 07:40:30;;;;;;;7.75;1.20;;;;;;;13.82;68.13;94955.28;4918549;28;20221;-75
2022/11/17 07:42:55;;;;;;;4.60;1.75;;;;;;;13.95;67.49;94971.81;4908060;28;20174;-75
2022/11/17 07:45:22;;;;;;;9.82;1.88;;;;;;;14.21;66.46;94978.69;4888994;28;20196;-75
2022/11/17 07:47:58;;;;;;;7.25;1.10;;;;;;;13.80;68.11;94988.09;4901623;28;20718;-76
2022/11/17 07:50:25;;;;;;;8.13;1.58;;;;;;;14.01;66.83;94991.44;4900162;28;20274;-75
2022/11/17 07:52:52;;;;;;;9.05;2.28;;;;;;;14.11;66.63;94992.16;4919698;28;20288;-76
2022/11/17 07:55:17;;;;;;;7.85;1.38;;;;;;;13.98;67.18;94999.97;4918311;28;20279;-76
2022/11/17 07:57:43;;;;;;;7.30;1.05;;;;;;;14.03;66.62;94999.78;4940973;28;20183;-75
2022/11/17 08:00:09;;;;;;;5.68;1.63;;;;;;;13.88;66.82;94989.88;4908371;28;20255;-76
2022/11/17 08:02:34;;;;;;;4.30;1.70;;;;;;;13.88;66.68;95000.34;4902422;28;20308;-76
2022/11/17 08:05:00;;;;;;;3.58;1.10;;;;;;;13.72;67.98;94989.66;4900361;28;20260;-75
2022/11/17 08:07:25;;;;;;;7.25;1.45;;;;;;;13.28;69.13;94992.50;4947315;28;20235;-76
2022/11/17 08:09:51;;;;;;;9.35;1.40;;;;;;;13.01;70.72;94987.69;4929582;28;20353;-75
2022/11/17 08:12:16;;;;;;;5.97;1.58;;;;;;;13.59;69.03;94991.44;4890660;28;20170;-75
2022/11/17 08:14:41;;;;;;;5.82;1.20;;;;;;;13.70;68.33;95004.16;4921459;28;20533;-75
2022/11/17 08:17:07;;;;;;;5.00;0.88;;;;;;;13.63;68.40;95002.03;4883653;28;20221;-75
2022/11/17 08:19:32;;;;;;;4.07;1.08;;;;;;;13.45;68.90;94998.72;4927057;28;20186;-75
2022/11/17 08:21:58;;;;;;;6.13;1.85;;;;;;;13.38;69.61;95001.84;4913984;28;20083;-75
2022/11/17 08:24:23;;;;;;;7.43;1.58;;;;;;;13.30;69.82;94994.81;4890401;28;20626;-76
2022/11/17 08:26:48;;;;;;;6.65;1.73;;;;;;;13.42;69.25;95007.22;4905878;28;20177;-75
2022/11/17 08:29:17;;;;;;;4.25;0.93;;;;;;;13.40;69.18;95012.78;4920869;28;20742;-75
2022/11/17 08:31:45;;;;;;;6.65;0.95;;;;;;;13.53;68.94;95012.84;4901541;28;20166;-75
2022/11/17 08:34:11;;;;;;;5.40;1.08;;;;;;;13.53;69.05;95020.69;4926739;28;20281;-75
2022/11/17 08:36:36;;;;;;;6.55;1.30;;;;;;;13.63;68.65;95026.31;4911937;28;20253;-75
2022/11/17 08:39:02;;;;;;;7.32;1.30;;;;;;;13.47;69.05;95017.50;4904165;28;20656;-75
2022/11/17 08:41:27;;;;;;;9.30;1.55;;;;;;;13.56;68.83;95015.59;4917953;28;20182;-75
2022/11/17 08:43:53;;;;;;;5.90;1.58;;;;;;;13.17;69.85;95024.53;4908432;28;20571;-76
2022/11/17 08:46:18;;;;;;;7.15;1.60;;;;;;;13.71;68.65;95037.03;4900473;28;20131;-75
2022/11/17 08:48:43;;;;;;;5.60;1.73;;;;;;;13.79;68.44;95034.38;4891397;28;20330;-74
2022/11/17 08:51:10;;;;;;;7.00;1.20;;;;;;;13.58;69.78;95023.88;4908178;28;20733;-74
2022/11/17 08:53:36;;;;;;;5.93;2.58;;;;;;;13.42;69.66;95038.59;4908379;28;20173;-75
2022/11/17 08:56:08;;;;;;;6.55;2.03;;;;;;;13.42;70.19;95054.28;4917827;28;20676;-75
2022/11/17 08:58:52;;;;;;;8.48;1.45;;;;;;;13.28;69.99;95068.28;4892226;28;20711;-76
2022/11/17 09:01:17;;;;;;;4.13;1.75;;;;;;;13.68;68.60;95046.31;4900054;28;20468;-75
2022/11/17 09:03:44;;;;;;;5.38;1.02;;;;;;;13.52;69.48;95053.16;4892272;28;20303;-75
2022/11/17 09:06:11;;;;;;;10.82;1.90;;;;;;;13.25;69.46;95063.69;4908154;28;20212;-75
2022/11/17 09:08:36;;;;;;;6.97;0.70;;;;;;;12.81;70.67;95065.63;4923828;28;20271;-76
2022/11/17 09:11:06;;;;;;;6.97;1.10;;;;;;;13.32;69.51;95058.00;4908112;28;20165;-76
2022/11/17 09:13:32;;;;;;;8.88;1.13;;;;;;;13.11;70.53;95050.81;4924544;28;20165;-75
2022/11/17 09:16:07;;;;;;;5.30;1.27;;;;;;;12.96;70.14;95061.00;4919098;28;20197;-76
2022/11/17 09:18:33;;;;;;;3.70;0.85;;;;;;;13.39;68.63;95062.75;4921511;28;20215;-75
2022/11/17 09:21:10;;;;;;;5.05;0.80;;;;;;;13.43;68.79;95058.41;4920028;28;20185;-75
2022/11/17 09:23:36;;;;;;;9.02;1.27;;;;;;;13.27;68.54;95060.75;4923816;28;20276;-76
2022/11/17 09:26:07;;;;;;;4.35;0.60;;;;;;;13.15;69.15;95063.25;4924388;28;20383;-75
2022/11/17 09:28:33;;;;;;;5.07;0.90;;;;;;;13.53;68.14;95068.50;4907497;28;20226;-74
2022/11/17 09:30:59;;;;;;;6.80;1.10;;;;;;;13.42;68.63;95069.97;4892005;28;20220;-75
2022/11/17 09:33:24;;;;;;;4.53;1.55;;;;;;;13.41;68.40;95077.03;4924285;28;20691;-75
2022/11/17 09:35:50;;;;;;;4.68;0.80;;;;;;;13.47;68.91;95075.03;4924243;28;20188;-74
2022/11/17 09:38:15;;;;;;;6.30;1.00;;;;;;;13.55;68.76;95081.28;4956370;28;20304;-75
2022/11/17 09:40:41;;;;;;;5.05;0.70;;;;;;;13.77;68.02;95088.09;4920206;28;20231;-74
2022/11/17 09:43:27;;;;;;;3.55;0.82;;;;;;;13.75;68.50;95098.13;4907843;28;20300;-75
2022/11/17 09:46:01;;;;;;;5.68;1.58;;;;;;;14.00;67.36;95091.19;4899291;28;20561;-75
2022/11/17 09:48:39;;;;;;;5.77;1.10;;;;;;;13.86;68.06;95099.28;4907258;28;20330;-74
2022/11/17 09:51:08;;;;;;;4.18;0.57;;;;;;;13.59;68.64;95098.66;4892631;28;20215;-75
2022/11/17 09:54:00;;;;;;;6.53;1.90;;;;;;;13.70;68.24;95099.06;4911369;28;20443;-76
2022/11/17 09:56:26;;;;;;;2.00;0.95;;;;;;;13.15;68.93;95095.38;4927238;28;20197;-74
2022/11/17 09:59:00;;;;;;;5.82;0.90;;;;;;;13.48;69.35;95092.97;4910720;28;20174;-75
2022/11/17 10:01:27;;;;;;;5.72;1.20;;;;;;;13.74;68.42;95099.94;4904716;28;20188;-75
2022/11/17 10:03:54;;;;;;;7.38;1.73;;;;;;;13.89;67.71;95097.88;4925989;28;20297;-74
2022/11/17 10:06:21;;;;;;;6.22;1.25;;;;;;;13.55;68.66;95102.94;4940778;28;20197;-75
2022/11/17 10:08:53;;;;;;;6.38;1.40;;;;;;;13.52;68.61;95102.81;4911003;28;20157;-76
2022/11/17 10:11:30;;;;;;;4.80;1.20;;;;;;;13.43;69.00;95100.25;4927598;28;20768;-75
2022/11/17 10:13:58;;;;;;;6.75;0.95;;;;;;;13.48;68.81;95092.22;4927439;28;20623;-75
2022/11/17 10:16:23;;;;;;;6.80;1.52;;;;;;;13.82;68.31;95095.75;4910562;28;20185;-75
2022/11/17 10:18:48;;;;;;;6.00;1.13;;;;;;;13.77;68.20;95088.09;4887838;28;20212;-74
2022/11/17 10:21:14;;;;;;;6.93;1.45;;;;;;;13.60;68.67;95084.47;4906932;28;20613;-75
2022/11/17 10:23:43;;;;;;;3.08;0.90;;;;;;;13.27;70.04;95103.34;4923219;28;20313;-76
2022/11/17 10:26:11;;;;;;;5.35;1.30;;;;;;;13.40;69.68;95106.88;4908504;28;20076;-76
2022/11/17 10:28:36;;;;;;;6.22;1.15;;;;;;;13.29;69.61;95095.94;4926813;28;20220;-76
2022/11/17 10:31:10;;;;;;;9.23;1.52;;;;;;;13.35;70.01;95098.41;4910574;28;20216;-77
2022/11/17 10:33:41;;;;;;;8.75;1.08;;;;;;;13.78;68.58;95084.41;4906702;28;20184;-75
2022/11/17 10:36:20;;;;;;;6.72;1.25;;;;;;;13.78;68.34;95105.34;4893836;28;20276;-76
2022/11/17 10:38:48;;;;;;;4.45;1.45;;;;;;;13.81;68.33;95107.31;4923445;28;20243;-76
2022/11/17 10:41:16;;;;;;;5.32;1.00;;;;;;;13.96;67.86;95098.16;4923751;28;20683;-76
2022/11/17 10:43:52;;;;;;;4.82;1.15;;;;;;;13.53;69.57;95096.53;4893970;28;20212;-76
2022/11/17 10:46:18;;;;;;;6.47;1.30;;;;;;;13.92;68.13;95092.78;4920290;28;20235;-76
2022/11/17 10:49:03;;;;;;;6.22;1.23;;;;;;;14.00;68.39;95091.19;4901985;28;20279;-76
2022/11/17 10:51:31;;;;;;;6.97;1.27;;;;;;;14.05;67.79;95078.72;4909629;28;20106;-76
2022/11/17 10:54:02;;;;;;;5.95;1.33;;;;;;;14.09;68.34;95088.56;4907168;28;20209;-76
2022/11/17 10:56:29;;;;;;;5.95;0.88;;;;;;;13.81;69.41;95083.75;4924364;28;20188;-75
2022/11/17 10:59:13;;;;;;;9.00;1.67;;;;;;;13.96;69.48;95101.53;4884379;28;20258;-75
2022/11/17 11:01:41;;;;;;;11.35;1.90;;;;;;;13.59;70.97;95088.19;4921894;28;20259;-76
2022/11/17 11:04:34;;;;;;;6.00;1.45;;;;;;;14.31;69.04;95092.69;4910070;28;20635;-76
2022/11/17 11:07:05;;;;;;;11.25;1.35;;;;;;;14.36;69.57;95100.34;4893012;28;20373;-75
2022/11/17 11:09:31;;;;;;;9.80;1.65;;;;;;;14.30;70.46;95086.69;4927545;28;20643;-75
2022/11/17 11:11:58;;;;;;;9.52;2.03;;;;;;;14.37;69.63;95078.34;4902959;28;20188;-74
2022/11/17 11:14:30;;;;;;;9.50;1.55;;;;;;;14.31;69.49;95080.38;4925767;28;20624;-75
2022/11/17 11:16:56;;;;;;;9.98;1.42;;;;;;;14.29;68.67;95079.94;4892979;28;20594;-76
2022/11/17 11:19:21;;;;;;;7.38;2.22;;;;;;;13.49;71.12;95084.06;4909808;28;20286;-76
2022/11/17 11:22:24;;;;;;;6.88;1.90;;;;;;;13.32;70.66;95076.28;4909702;28;20196;-76
2022/11/17 11:24:57;;;;;;;7.95;1.92;;;;;;;13.94;68.94;95090.63;4925584;28;20305;-76
2022/11/17 11:27:40;;;;;;;7.18;1.83;;;;;;;13.98;69.75;95086.31;4902377;28;20204;-76
2022/11/17 11:30:10;;;;;;;7.32;1.10;;;;;;;13.82;69.28;95086.06;4909644;28;20587;-75
2022/11/17 11:32:47;;;;;;;5.55;2.17;;;;;;;14.05;68.88;95083.16;4903260;28;20279;-76
2022/11/17 11:35:50;;;;;;;8.68;2.03;;;;;;;14.10;68.25;95079.59;4909376;28;20178;-75
2022/11/17 11:38:55;;;;;;;6.57;1.25;;;;;;;14.36;67.48;95072.34;4902352;28;20286;-75
2022/11/17 11:41:35;;;;;;;8.77;1.90;;;;;;;14.38;67.31;95079.88;4931089;28;20192;-75
2022/11/17 11:44:00;;;;;;;7.82;1.27;;;;;;;14.28;68.35;95080.25;4895347;28;20627;-75
2022/11/17 11:46:47;;;;;;;3.63;1.15;;;;;;;13.97;68.12;95076.16;4925117;28;20214;-76
2022/11/17 11:49:26;;;;;;;5.28;1.20;;;;;;;14.02;68.15;95078.59;4909293;28;20627;-76
2022/11/17 11:51:52;;;;;;;5.95;1.48;;;;;;;13.83;69.23;95087.59;4920256;28;20187;-75
2022/11/17 11:54:39;;;;;;;7.05;1.98;;;;;;;13.94;68.98;95088.00;4893381;28;20577;-78
2022/11/17 11:57:08;;;;;;;8.30;1.23;;;;;;;14.21;67.39;95083.38;4917472;28;20162;-76
2022/11/17 11:59:38;;;;;;;6.25;1.73;;;;;;;14.26;68.54;95101.50;4902222;28;20272;-75
2022/11/17 12:02:10;;;;;;;7.78;1.10;;;;;;;14.17;67.49;95098.97;4901833;28;20206;-75
2022/11/17 12:05:03;;;;;;;6.75;1.30;;;;;;;14.41;66.95;95095.72;4926940;28;20267;-75
2022/11/17 12:07:44;;;;;;;4.75;1.55;;;;;;;14.31;67.50;95105.78;4908132;28;20240;-75
2022/11/17 12:10:29;;;;;;;10.38;1.23;;;;;;;14.40;67.38;95109.88;4924418;28;20524;-75
2022/11/17 12:12:54;;;;;;;5.57;1.25;;;;;;;14.20;68.04;95100.16;4904909;28;20224;-76
2022/11/17 12:15:19;;;;;;;6.70;1.33;;;;;;;14.15;67.61;95105.56;4911886;28;20268;-76
2022/11/17 12:17:51;;;;;;;7.13;1.20;;;;;;;14.68;67.25;95103.38;4953668;28;20271;-76
2022/11/17 12:20:35;;;;;;;7.57;1.17;;;;;;;14.81;66.76;95102.34;4908203;28;20192;-76
2022/11/17 12:23:21;;;;;;;10.05;1.50;;;;;;;14.37;67.31;95107.88;4924503;28;20275;-76
2022/11/17 12:25:48;;;;;;;5.57;2.03;;;;;;;14.61;66.48;95120.38;4908013;28;20283;-76
2022/11/17 12:28:25;;;;;;;6.70;1.30;;;;;;;14.64;66.85;95115.59;4924083;28;20245;-75
2022/11/17 12:30:53;;;;;;;7.18;1.85;;;;;;;14.24;67.52;95116.78;4921736;28;20575;-76
2022/11/17 12:33:18;;;;;;;6.15;1.13;;;;;;;13.87;66.77;95124.38;4932993;28;20192;-75
2022/11/17 12:35:44;;;;;;;11.32;1.60;;;;;;;14.24;66.14;95122.00;4884009;28;20197;-76
2022/11/17 12:38:15;;;;;;;6.80;1.45;;;;;;;14.40;65.60;95124.81;4936228;28;20212;-75